createdAt,value
2022-10-29T00:02:01.356Z,18.57
2022-10-29T00:04:27.884Z,15.37
2022-10-29T00:06:54.468Z,23.87
2022-10-29T00:09:21.124Z,16.83
2022-10-29T00:11:47.657Z,19.30
2022-10-29T00:14:14.127Z,19.10
2022-10-29T00:16:40.596Z,20.57
2022-10-29T00:19:07.332Z,20.17
2022-10-29T00:21:34.539Z,14.33
2022-10-29T00:24:01.049Z,13.13
2022-10-29T00:26:29.530Z,14.80
2022-10-29T00:28:57.152Z,16.63
2022-10-29T00:31:24.670Z,11.20
2022-10-29T00:33:55.353Z,17.53
2022-10-29T00:36:24.236Z,11.47
2022-10-29T00:38:51.243Z,16.73
2022-10-29T00:41:28.192Z,10.40
2022-10-29T00:44:22.655Z,17.33
2022-10-29T00:47:02.079Z,18.17
2022-10-29T00:49:30.081Z,15.17
2022-10-29T00:51:57.131Z,19.80
2022-10-29T00:54:23.819Z,18.87
2022-10-29T00:56:55.252Z,19.30
2022-10-29T00:59:21.943Z,19.40
2022-10-29T01:01:49.390Z,16.53
2022-10-29T01:04:17.587Z,12.83
2022-10-29T01:06:44.879Z,17.33
2022-10-29T01:09:12.853Z,18.47
2022-10-29T01:11:39.249Z,18.53
2022-10-29T01:14:20.171Z,17.50
2022-10-29T01:17:10.291Z,22.17
2022-10-29T01:19:54.870Z,14.70
2022-10-29T01:22:27.532Z,13.40
2022-10-29T01:25:28.432Z,13.87
2022-10-29T01:28:19.270Z,9.07
2022-10-29T01:31:16.644Z,14.80
2022-10-29T01:33:52.131Z,16.13
2022-10-29T01:36:46.675Z,15.73
2022-10-29T01:39:16.084Z,15.03
2022-10-29T01:41:53.253Z,14.83
2022-10-29T01:44:28.099Z,20.23
2022-10-29T01:47:00.404Z,15.93
2022-10-29T01:49:44.281Z,17.20
2022-10-29T01:52:15.164Z,15.47
2022-10-29T01:54:43.409Z,17.97
2022-10-29T01:57:31.651Z,16.67
2022-10-29T02:00:02.739Z,20.10
2022-10-29T02:02:45.738Z,17.07
2022-10-29T02:05:29.857Z,15.70
2022-10-29T02:08:18.036Z,15.10
2022-10-29T02:11:09.285Z,18.20
2022-10-29T02:13:41.772Z,20.23
2022-10-29T02:16:10.099Z,17.93
2022-10-29T02:18:45.501Z,20.50
2022-10-29T02:21:18.708Z,16.63
2022-10-29T02:23:46.159Z,17.83
2022-10-29T02:26:13.447Z,13.53
2022-10-29T02:28:39.896Z,21.03
2022-10-29T02:31:06.362Z,16.63
2022-10-29T02:33:32.806Z,19.40
2022-10-29T02:35:59.310Z,18.90
2022-10-29T02:38:25.812Z,23.30
2022-10-29T02:40:52.748Z,17.40
2022-10-29T02:45:50.966Z,16.20
2022-10-29T02:48:17.662Z,16.93
2022-10-29T02:50:44.084Z,16.00
2022-10-29T02:53:10.571Z,16.37
2022-10-29T02:55:37.076Z,13.83
2022-10-29T02:58:03.488Z,15.80
2022-10-29T03:00:29.990Z,11.33
2022-10-29T03:02:56.881Z,15.13
2022-10-29T03:05:23.590Z,15.67
2022-10-29T03:07:50.303Z,14.70
2022-10-29T03:10:16.805Z,12.87
2022-10-29T03:12:43.267Z,17.63
2022-10-29T03:15:10.208Z,17.50
2022-10-29T03:17:36.677Z,10.97
2022-10-29T03:20:03.937Z,13.27
2022-10-29T03:22:30.351Z,16.47
2022-10-29T03:24:56.827Z,14.70
2022-10-29T03:27:23.386Z,18.70
2022-10-29T03:29:49.921Z,17.60
2022-10-29T03:32:16.717Z,18.57
2022-10-29T03:34:43.121Z,12.90
2022-10-29T03:37:09.808Z,14.77
2022-10-29T03:39:36.262Z,13.70
2022-10-29T03:42:04.008Z,13.40
2022-10-29T03:44:31.131Z,16.50
2022-10-29T03:46:57.643Z,15.97
2022-10-29T03:49:24.143Z,13.10
2022-10-29T03:51:50.623Z,14.37
2022-10-29T03:54:17.064Z,13.37
2022-10-29T03:56:43.578Z,20.70
2022-10-29T04:01:41.603Z,14.50
2022-10-29T04:04:09.853Z,18.00
2022-10-29T04:06:36.326Z,17.33
2022-10-29T04:09:03.698Z,14.93
2022-10-29T04:11:30.239Z,15.27
2022-10-29T04:13:57.014Z,14.50
2022-10-29T04:16:23.560Z,13.73
2022-10-29T04:18:50.408Z,18.63
2022-10-29T04:29:37.429Z,15.87
2022-10-29T04:32:04.115Z,19.20
2022-10-29T04:34:30.587Z,18.13
2022-10-29T04:36:57.057Z,15.20
2022-10-29T04:39:23.983Z,11.87
2022-10-29T04:41:50.529Z,13.60
2022-10-29T04:44:23.170Z,16.40
2022-10-29T04:46:49.633Z,22.70
2022-10-29T04:49:16.504Z,16.17
2022-10-29T04:51:43.115Z,15.87
2022-10-29T04:54:09.645Z,17.77
2022-10-29T04:56:36.120Z,15.00
2022-10-29T04:59:03.288Z,18.77
2022-10-29T05:01:30.243Z,17.30
2022-10-29T05:03:59.874Z,18.47
2022-10-29T05:06:27.292Z,15.37
2022-10-29T05:08:53.988Z,14.17
2022-10-29T05:11:20.644Z,17.47
2022-10-29T05:13:47.272Z,17.20
2022-10-29T05:16:13.773Z,17.47
2022-10-29T05:18:40.356Z,16.40
2022-10-29T05:21:06.983Z,21.50
2022-10-29T05:23:33.473Z,16.60
2022-10-29T05:25:59.937Z,16.90
2022-10-29T05:28:26.406Z,16.17
2022-10-29T05:30:53.710Z,12.37
2022-10-29T05:33:24.613Z,15.50
2022-10-29T05:35:51.608Z,21.23
2022-10-29T05:38:18.795Z,18.03
2022-10-29T05:40:45.789Z,19.47
2022-10-29T05:43:13.990Z,16.33
2022-10-29T05:45:40.851Z,15.97
2022-10-29T05:48:08.251Z,19.20
2022-10-29T05:50:35.141Z,13.10
2022-10-29T05:53:06.515Z,15.00
2022-10-29T05:55:34.757Z,16.00
2022-10-29T05:58:07.782Z,13.03
2022-10-29T06:00:36.907Z,18.27
2022-10-29T06:03:03.616Z,16.40
2022-10-29T06:05:30.137Z,16.83
2022-10-29T06:07:58.201Z,20.97
2022-10-29T06:10:26.828Z,15.43
2022-10-29T06:12:53.936Z,18.27
2022-10-29T06:15:20.757Z,15.97
2022-10-29T06:17:48.054Z,14.93
2022-10-29T06:20:16.975Z,14.17
2022-10-29T06:22:43.546Z,15.97
2022-10-29T06:25:10.210Z,15.07
2022-10-29T06:27:36.993Z,16.97
2022-10-29T06:30:05.570Z,18.90
2022-10-29T06:32:32.107Z,14.53
2022-10-29T06:34:58.639Z,13.37
2022-10-29T06:37:25.189Z,18.00
2022-10-29T06:39:52.394Z,14.47
2022-10-29T06:42:19.222Z,21.73
2022-10-29T06:44:45.903Z,18.23
2022-10-29T06:47:12.372Z,17.47
2022-10-29T06:49:38.813Z,17.87
2022-10-29T06:52:05.501Z,17.27
2022-10-29T06:54:31.941Z,17.80
2022-10-29T06:56:58.359Z,20.83
2022-10-29T06:59:24.925Z,17.10
2022-10-29T07:01:51.455Z,22.20
2022-10-29T07:04:18.627Z,22.70
2022-10-29T07:06:45.388Z,16.87
2022-10-29T07:09:11.910Z,14.47
2022-10-29T07:11:38.429Z,17.57
2022-10-29T07:14:05.962Z,16.97
2022-10-29T07:16:32.528Z,14.20
2022-10-29T07:18:59.038Z,14.60
2022-10-29T07:21:25.511Z,11.83
2022-10-29T07:23:52.215Z,17.20
2022-10-29T07:26:19.200Z,16.73
2022-10-29T07:28:45.830Z,13.77
2022-10-29T07:31:12.333Z,23.67
2022-10-29T07:33:39.005Z,24.67
2022-10-29T07:36:05.914Z,21.20
2022-10-29T07:38:32.482Z,18.77
2022-10-29T07:40:58.982Z,21.20
2022-10-29T07:43:25.420Z,21.63
2022-10-29T07:45:52.005Z,20.33
2022-10-29T07:48:20.423Z,17.20
2022-10-29T07:50:48.016Z,18.03
2022-10-29T07:53:15.203Z,21.50
2022-10-29T07:55:41.874Z,19.07
2022-10-29T07:58:11.622Z,18.63
2022-10-29T08:00:40.332Z,18.80
2022-10-29T08:03:07.223Z,22.90
2022-10-29T08:05:35.233Z,21.97
2022-10-29T08:08:02.065Z,21.93
2022-10-29T08:10:30.648Z,20.07
2022-10-29T08:12:59.358Z,19.60
2022-10-29T08:15:30.520Z,20.37
2022-10-29T08:17:57.761Z,22.83
2022-10-29T08:20:26.556Z,21.43
2022-10-29T08:22:53.470Z,21.27
2022-10-29T08:25:21.019Z,24.20
2022-10-29T08:28:02.134Z,18.57
2022-10-29T08:30:29.283Z,20.63
2022-10-29T08:32:56.477Z,16.67
2022-10-29T08:35:23.285Z,16.97
2022-10-29T08:37:49.778Z,18.17
2022-10-29T08:40:24.734Z,19.43
2022-10-29T08:43:11.464Z,23.90
2022-10-29T08:45:49.118Z,24.83
2022-10-29T08:48:27.960Z,25.50
2022-10-29T08:51:14.704Z,31.03
2022-10-29T08:54:03.992Z,23.63
2022-10-29T08:56:39.099Z,23.00
2022-10-29T08:59:24.771Z,23.87
2022-10-29T09:01:55.317Z,24.10
2022-10-29T09:04:27.364Z,27.80
2022-10-29T09:07:19.216Z,26.13
2022-10-29T09:09:56.618Z,22.60
2022-10-29T09:12:35.497Z,24.40
2022-10-29T09:15:32.141Z,22.70
2022-10-29T09:18:18.144Z,26.67
2022-10-29T09:21:04.923Z,27.43
2022-10-29T09:24:02.825Z,22.97
2022-10-29T09:26:38.730Z,21.27
2022-10-29T09:29:11.656Z,22.47
2022-10-29T09:31:49.316Z,18.87
2022-10-29T09:34:30.817Z,19.60
2022-10-29T09:36:59.151Z,21.23
2022-10-29T09:39:37.104Z,19.20
2022-10-29T09:42:11.379Z,21.03
2022-10-29T09:45:09.856Z,27.60
2022-10-29T09:47:55.899Z,22.27
2022-10-29T09:50:41.382Z,25.83
2022-10-29T09:53:08.782Z,23.00
2022-10-29T09:55:40.519Z,22.37
2022-10-29T09:58:07.857Z,23.07
2022-10-29T10:00:34.990Z,24.53
2022-10-29T10:03:11.075Z,25.33
2022-10-29T10:06:00.854Z,24.63
2022-10-29T10:08:28.005Z,24.10
2022-10-29T10:10:56.381Z,19.30
2022-10-29T10:13:59.511Z,17.57
2022-10-29T10:16:33.127Z,20.57
2022-10-29T10:18:59.703Z,20.40
2022-10-29T10:21:31.214Z,24.53
2022-10-29T10:23:59.437Z,23.07
2022-10-29T10:26:36.861Z,26.17
2022-10-29T10:29:22.633Z,21.07
2022-10-29T10:31:51.168Z,20.23
2022-10-29T10:34:35.722Z,20.83
2022-10-29T10:37:05.210Z,20.90
2022-10-29T10:39:35.464Z,21.43
2022-10-29T10:42:06.901Z,19.70
2022-10-29T10:44:34.813Z,18.03
2022-10-29T10:47:06.876Z,20.90
2022-10-29T10:49:36.240Z,22.40
2022-10-29T10:52:15.182Z,21.93
2022-10-29T10:54:48.336Z,22.60
2022-10-29T10:57:17.089Z,20.53
2022-10-29T11:00:03.057Z,15.60
2022-10-29T11:02:33.663Z,18.97
2022-10-29T11:05:09.490Z,14.83
2022-10-29T11:07:39.236Z,14.63
2022-10-29T11:10:10.433Z,17.03
2022-10-29T11:12:42.065Z,17.30
2022-10-29T11:16:05.094Z,18.90
2022-10-29T11:19:13.085Z,18.53
2022-10-29T11:21:47.103Z,16.50
2022-10-29T11:24:21.193Z,17.93
2022-10-29T11:27:06.222Z,21.77
2022-10-29T11:29:49.155Z,14.13
2022-10-29T11:32:33.171Z,13.33
2022-10-29T11:35:09.494Z,16.73
2022-10-29T11:37:54.125Z,17.97
2022-10-29T11:40:23.754Z,13.13
2022-10-29T11:42:50.832Z,15.20
2022-10-29T11:45:38.702Z,16.33
2022-10-29T11:48:08.012Z,13.50
2022-10-29T11:50:37.534Z,12.97
2022-10-29T11:53:30.133Z,14.47
2022-10-29T11:56:20.925Z,13.37
2022-10-29T11:58:57.391Z,14.10
2022-10-29T12:01:45.017Z,14.40
2022-10-29T12:04:29.763Z,16.03
2022-10-29T12:07:10.760Z,16.87
2022-10-29T12:10:14.791Z,14.03
2022-10-29T12:12:53.999Z,15.90
2022-10-29T12:15:25.937Z,14.13
2022-10-29T12:18:16.453Z,16.00
2022-10-29T12:21:09.571Z,15.37
2022-10-29T12:23:56.433Z,16.07
2022-10-29T12:26:31.665Z,15.37
2022-10-29T12:29:04.242Z,17.53
2022-10-29T12:31:42.962Z,16.03
2022-10-29T12:34:39.256Z,16.00
2022-10-29T12:37:15.030Z,11.93
2022-10-29T12:39:47.345Z,11.60
2022-10-29T12:42:21.928Z,15.87
2022-10-29T12:45:14.273Z,11.70
2022-10-29T12:48:17.340Z,13.67
2022-10-29T12:51:31.911Z,11.83
2022-10-29T12:54:20.325Z,15.00
2022-10-29T12:56:50.525Z,16.27
2022-10-29T12:59:23.720Z,12.13
2022-10-29T13:02:12.407Z,13.80
2022-10-29T13:05:11.165Z,13.03
2022-10-29T13:07:58.892Z,11.97
2022-10-29T13:10:27.079Z,10.70
2022-10-29T13:13:12.147Z,18.23
2022-10-29T13:15:43.548Z,13.03
2022-10-29T13:18:12.719Z,12.77
2022-10-29T13:20:43.141Z,15.83
2022-10-29T13:23:24.570Z,13.43
2022-10-29T13:25:56.365Z,15.47
2022-10-29T13:28:22.805Z,14.03
2022-10-29T13:30:52.472Z,14.47
2022-10-29T13:33:21.624Z,12.33
2022-10-29T13:35:54.249Z,15.63
2022-10-29T13:38:46.986Z,15.93
2022-10-29T13:41:42.612Z,7.97
2022-10-29T13:44:19.353Z,13.93
2022-10-29T13:47:05.292Z,10.40
2022-10-29T13:49:39.267Z,12.10
2022-10-29T13:52:11.313Z,12.20
2022-10-29T13:54:50.037Z,10.30
2022-10-29T13:57:25.405Z,13.60
2022-10-29T13:59:59.329Z,13.57
2022-10-29T14:02:29.992Z,14.33
2022-10-29T14:05:05.863Z,10.73
2022-10-29T14:08:02.367Z,11.87
2022-10-29T14:10:41.051Z,11.03
2022-10-29T14:13:23.551Z,15.30
2022-10-29T14:16:11.072Z,9.60
2022-10-29T14:18:42.547Z,10.53
2022-10-29T14:21:16.943Z,13.23
2022-10-29T14:24:02.847Z,9.67
2022-10-29T14:26:31.570Z,11.03
2022-10-29T14:29:12.923Z,14.80
2022-10-29T14:31:39.395Z,12.87
2022-10-29T14:34:07.140Z,15.17
2022-10-29T14:36:38.737Z,15.13
2022-10-29T14:39:08.077Z,16.30
2022-10-29T14:41:39.099Z,12.93
2022-10-29T14:44:17.993Z,12.53
2022-10-29T14:47:00.424Z,11.47
2022-10-29T14:49:30.758Z,10.80
2022-10-29T14:52:02.730Z,11.23
2022-10-29T14:54:34.037Z,12.37
2022-10-29T14:57:14.227Z,12.87
2022-10-29T14:59:47.640Z,10.60
2022-10-29T15:02:36.818Z,8.03
2022-10-29T15:05:07.466Z,10.30
2022-10-29T15:07:36.109Z,13.07
2022-10-29T15:10:03.341Z,14.27
2022-10-29T15:12:36.427Z,11.23
2022-10-29T15:15:19.487Z,8.47
2022-10-29T15:18:00.673Z,10.43
2022-10-29T15:20:47.893Z,11.93
2022-10-29T15:23:27.740Z,14.03
2022-10-29T15:26:06.800Z,9.50
2022-10-29T15:28:39.737Z,7.53
2022-10-29T15:31:07.142Z,7.37
2022-10-29T15:33:35.930Z,8.43
2022-10-29T15:36:04.803Z,7.53
2022-10-29T15:38:31.333Z,12.67
2022-10-29T15:41:20.669Z,9.50
2022-10-29T15:43:49.916Z,9.77
2022-10-29T15:46:29.364Z,10.87
2022-10-29T15:48:56.026Z,8.63
2022-10-29T15:51:30.792Z,11.97
2022-10-29T15:54:02.660Z,8.73
2022-10-29T15:56:31.241Z,10.30
2022-10-29T15:58:59.547Z,8.13
2022-10-29T16:01:26.106Z,11.93
2022-10-29T16:03:52.881Z,12.83
2022-10-29T16:06:19.714Z,12.70
2022-10-29T16:08:51.574Z,14.07
2022-10-29T16:11:20.736Z,11.47
2022-10-29T16:13:54.679Z,14.40
2022-10-29T16:16:24.244Z,14.97
2022-10-29T16:18:52.103Z,12.70
2022-10-29T16:21:23.957Z,9.90
2022-10-29T16:23:51.408Z,16.07
2022-10-29T16:26:23.122Z,16.93
2022-10-29T16:28:50.280Z,13.77
2022-10-29T16:31:25.638Z,15.87
2022-10-29T16:33:56.612Z,15.60
2022-10-29T16:36:23.143Z,12.43
2022-10-29T16:38:49.707Z,16.73
2022-10-29T16:41:18.623Z,16.53
2022-10-29T16:43:46.068Z,14.33
2022-10-29T16:46:13.591Z,16.80
2022-10-29T16:48:40.781Z,15.03
2022-10-29T16:51:07.495Z,16.17
2022-10-29T16:53:34.306Z,19.97
2022-10-29T16:56:02.775Z,15.40
2022-10-29T16:58:29.347Z,19.60
2022-10-29T17:01:04.116Z,30.33
2022-10-29T17:03:31.153Z,23.30
2022-10-29T17:06:06.465Z,28.67
2022-10-29T17:08:34.385Z,26.03
2022-10-29T17:11:03.424Z,22.60
2022-10-29T17:13:29.943Z,19.13
2022-10-29T17:15:56.645Z,20.30
2022-10-29T17:18:24.585Z,17.13
2022-10-29T17:20:58.338Z,16.33
2022-10-29T17:23:24.933Z,16.13
2022-10-29T17:25:53.729Z,16.60
2022-10-29T17:28:21.945Z,16.33
2022-10-29T17:30:48.833Z,16.17
2022-10-29T17:33:16.229Z,14.80
2022-10-29T17:35:44.020Z,15.60
2022-10-29T17:38:11.258Z,16.80
2022-10-29T17:40:37.873Z,13.27
2022-10-29T17:43:04.430Z,13.43
2022-10-29T17:45:30.959Z,9.87
2022-10-29T17:47:58.620Z,12.37
2022-10-29T17:50:26.254Z,14.30
2022-10-29T17:52:53.706Z,10.63
2022-10-29T17:55:20.649Z,13.13
2022-10-29T17:57:47.695Z,13.77
2022-10-29T18:00:14.836Z,10.73
2022-10-29T18:02:41.363Z,10.87
2022-10-29T18:05:08.418Z,11.90
2022-10-29T18:07:34.967Z,12.60
2022-10-29T18:10:03.775Z,14.60
2022-10-29T18:12:30.246Z,12.47
2022-10-29T18:14:56.938Z,13.37
2022-10-29T18:17:23.356Z,12.67
2022-10-29T18:19:49.942Z,13.03
2022-10-29T18:22:16.546Z,12.73
2022-10-29T18:24:43.044Z,10.70
2022-10-29T18:27:09.471Z,17.03
2022-10-29T18:29:35.977Z,14.80
2022-10-29T18:32:04.053Z,14.33
2022-10-29T18:34:31.618Z,14.20
2022-10-29T18:36:58.181Z,16.17
2022-10-29T18:39:24.690Z,13.77
2022-10-29T18:41:51.305Z,12.80
2022-10-29T18:44:17.748Z,15.13
2022-10-29T18:46:44.252Z,13.00
2022-10-29T18:49:12.945Z,12.90
2022-10-29T18:51:39.851Z,13.20
2022-10-29T18:54:06.414Z,13.20
2022-10-29T18:56:32.971Z,14.30
2022-10-29T18:59:00.222Z,14.07
2022-10-29T19:01:31.298Z,12.63
2022-10-29T19:04:04.137Z,13.23
2022-10-29T19:06:32.914Z,17.00
2022-10-29T19:09:02.662Z,12.23
2022-10-29T19:11:29.840Z,15.30
2022-10-29T19:14:02.243Z,15.90
2022-10-29T19:16:30.622Z,16.93
2022-10-29T19:19:03.030Z,18.00
2022-10-29T19:21:30.743Z,18.03
2022-10-29T19:23:59.445Z,13.13
2022-10-29T19:26:28.054Z,15.73
2022-10-29T19:28:54.688Z,15.93
2022-10-29T19:31:26.574Z,14.67
2022-10-29T19:33:55.684Z,20.87
2022-10-29T19:36:23.359Z,13.17
2022-10-29T19:38:50.176Z,13.33
2022-10-29T19:41:18.084Z,15.03
2022-10-29T19:43:44.782Z,13.80
2022-10-29T19:46:16.877Z,17.43
2022-10-29T19:48:47.918Z,11.47
2022-10-29T19:51:14.490Z,12.70
2022-10-29T19:53:41.033Z,14.87
2022-10-29T19:56:10.888Z,14.73
2022-10-29T19:58:37.521Z,16.20
2022-10-29T20:01:06.799Z,14.50
2022-10-29T20:03:33.306Z,16.40
2022-10-29T20:06:00.026Z,19.70
2022-10-29T20:08:27.316Z,14.20
2022-10-29T20:10:55.826Z,16.23
2022-10-29T20:13:22.301Z,19.20
2022-10-29T20:15:49.118Z,15.17
2022-10-29T20:18:15.558Z,13.23
2022-10-29T20:20:42.612Z,13.43
2022-10-29T20:23:09.117Z,18.83
2022-10-29T20:25:35.583Z,13.70
2022-10-29T20:28:02.645Z,14.93
2022-10-29T20:30:30.128Z,14.73
2022-10-29T20:32:57.119Z,16.63
2022-10-29T20:35:24.148Z,19.70
2022-10-29T20:37:50.648Z,14.37
2022-10-29T20:40:17.780Z,15.63
2022-10-29T20:42:44.254Z,16.57
2022-10-29T20:45:10.813Z,18.27
2022-10-29T20:47:37.260Z,17.67
2022-10-29T20:50:04.054Z,18.87
2022-10-29T20:52:30.543Z,18.07
2022-10-29T20:54:57.032Z,20.63
2022-10-29T20:57:23.506Z,15.73
2022-10-29T20:59:50.167Z,17.47
2022-10-29T21:02:17.009Z,15.73
2022-10-29T21:04:43.553Z,17.87
2022-10-29T21:07:10.071Z,16.47
2022-10-29T21:09:36.496Z,19.10
2022-10-29T21:12:03.124Z,16.37
2022-10-29T21:14:29.746Z,16.07
2022-10-29T21:16:56.513Z,21.13
2022-10-29T21:19:23.088Z,17.43
2022-10-29T21:21:49.753Z,19.50
2022-10-29T21:24:17.817Z,17.53
2022-10-29T21:26:44.223Z,16.83
2022-10-29T21:29:10.712Z,15.83
2022-10-29T21:31:37.151Z,14.60
2022-10-29T21:34:03.894Z,15.17
2022-10-29T21:36:30.376Z,17.70
2022-10-29T21:38:57.015Z,16.50
2022-10-29T21:41:23.453Z,16.13
2022-10-29T21:43:50.061Z,19.40
2022-10-29T21:46:16.682Z,16.53
2022-10-29T21:48:43.294Z,18.23
2022-10-29T21:51:11.470Z,18.20
2022-10-29T21:53:38.659Z,16.57
2022-10-29T21:56:07.458Z,18.47
2022-10-29T21:58:34.467Z,13.53
2022-10-29T22:01:03.518Z,14.10
2022-10-29T22:03:32.268Z,13.97
2022-10-29T22:06:07.250Z,17.60
2022-10-29T22:08:34.696Z,12.57
2022-10-29T22:11:02.009Z,13.63
2022-10-29T22:13:29.135Z,16.20
2022-10-29T22:15:56.112Z,13.33
2022-10-29T22:18:23.607Z,16.33
2022-10-29T22:20:50.269Z,16.07
2022-10-29T22:25:51.165Z,14.33
2022-10-29T22:28:17.767Z,16.90
2022-10-29T22:30:44.320Z,14.53
2022-10-29T22:33:10.810Z,13.93
2022-10-29T22:35:37.729Z,15.90
2022-10-29T22:38:04.433Z,14.67
2022-10-29T22:40:30.886Z,12.00
2022-10-29T22:42:57.624Z,17.30
2022-10-29T22:45:24.414Z,14.77
2022-10-29T22:47:50.985Z,12.47
2022-10-29T22:50:17.707Z,10.77
2022-10-29T22:52:44.248Z,11.10
2022-10-29T22:55:10.676Z,12.57
2022-10-29T22:57:37.139Z,13.07
2022-10-29T23:00:03.877Z,15.30
2022-10-29T23:02:30.487Z,19.87
2022-10-29T23:04:56.978Z,18.00
2022-10-29T23:07:23.454Z,23.70
2022-10-29T23:09:50.156Z,20.23
2022-10-29T23:12:16.733Z,20.17
2022-10-29T23:14:43.208Z,19.93
2022-10-29T23:17:09.641Z,15.53
2022-10-29T23:19:36.099Z,18.73
2022-10-29T23:22:02.595Z,15.63
2022-10-29T23:24:29.090Z,18.53
2022-10-29T23:26:55.717Z,15.50
2022-10-29T23:29:22.360Z,13.77
2022-10-29T23:31:49.078Z,18.63
2022-10-29T23:34:15.532Z,15.47
2022-10-29T23:36:42.044Z,13.07
2022-10-29T23:39:08.642Z,17.70
2022-10-29T23:41:35.231Z,14.57
2022-10-29T23:44:01.759Z,18.13
2022-10-29T23:46:28.316Z,11.03
2022-10-29T23:48:54.936Z,13.77
2022-10-29T23:51:21.750Z,13.37
2022-10-29T23:53:50.432Z,13.10
2022-10-29T23:56:19.976Z,13.40
2022-10-29T23:58:46.441Z,14.07
